Time;durP1;ratioP1;P1;durP2;ratioP2;P2;SDS_P1;SDS_P2;PMS_P1;PMS_P2;Temp;Humidity;BMP_temperature;BMP_pressure;BME280_temperature;BME280_humidity;BME280_pressure;Samples;Min_cycle;Max_cycle;Signal;HPM_P1;HPM_P2
2022/06/22 00:01:40;;;;;;;386.43;245.87;;;11.10;99.90;;;;;;5055436;28;20203;-86
2022/06/22 00:04:15;;;;;;;415.37;244.73;;;11.10;99.90;;;;;;5055561;28;20575;-86
2022/06/22 00:06:45;;;;;;;320.60;242.27;;;11.10;99.90;;;;;;5055472;28;20645;-86
2022/06/22 00:09:23;;;;;;;346.63;245.13;;;11.00;99.90;;;;;;5055322;28;20206;-85
2022/06/22 00:11:51;;;;;;;353.97;243.47;;;11.00;99.90;;;;;;5055401;28;20181;-86
2022/06/22 00:14:20;;;;;;;388.07;243.80;;;11.00;99.90;;;;;;5055031;28;20679;-86
2022/06/22 00:16:52;;;;;;;384.50;247.27;;;11.00;99.90;;;;;;5054860;28;20224;-88
2022/06/22 00:19:27;;;;;;;365.47;226.13;;;11.00;99.90;;;;;;5055314;28;20193;-86
2022/06/22 00:21:54;;;;;;;359.43;242.27;;;10.90;99.90;;;;;;5054808;28;20185;-86
2022/06/22 00:24:41;;;;;;;111.63;102.53;;;10.90;99.90;;;;;;5054535;28;20202;-87
2022/06/22 00:27:16;;;;;;;342.97;223.20;;;10.90;1.00;;;;;;5054792;28;20589;-87
2022/06/22 00:29:47;;;;;;;387.23;231.27;;;10.80;99.90;;;;;;5054932;28;20187;-86
2022/06/22 00:32:25;;;;;;;51.93;47.83;;;10.80;99.90;;;;;;5055239;28;20219;-87
2022/06/22 00:34:54;;;;;;;81.77;75.10;;;10.80;1.00;;;;;;5055024;28;20217;-86
2022/06/22 00:37:25;;;;;;;74.53;68.87;;;10.70;1.00;;;;;;5054787;28;20270;-86
2022/06/22 00:39:54;;;;;;;90.93;83.20;;;10.70;1.00;;;;;;5054837;28;20270;-85
2022/06/22 00:42:29;;;;;;;446.40;241.30;;;10.70;1.00;;;;;;5054767;28;20195;-85
2022/06/22 00:45:04;;;;;;;512.87;237.87;;;10.60;1.00;;;;;;5054731;28;20187;-85
2022/06/22 00:47:34;;;;;;;466.07;236.13;;;10.60;1.00;;;;;;5054430;28;20551;-86
2022/06/22 00:50:08;;;;;;;518.60;242.13;;;10.60;1.00;;;;;;5054258;28;20193;-86
2022/06/22 00:52:39;;;;;;;458.77;235.30;;;10.60;52.00;;;;;;5053628;28;20177;-88
2022/06/22 00:55:17;;;;;;;449.77;233.37;;;10.60;99.90;;;;;;5070750;28;20233;-86
2022/06/22 00:57:49;;;;;;;442.73;232.07;;;10.60;1.00;;;;;;5094538;28;20199;-87
2022/06/22 01:00:20;;;;;;;446.03;228.67;;;10.60;99.90;;;;;;5094660;28;20252;-87
2022/06/22 01:02:53;;;;;;;435.13;226.60;;;10.60;99.90;;;;;;5094746;28;20243;-87
2022/06/22 01:05:27;;;;;;;404.57;227.37;;;10.60;99.90;;;;;;5094373;28;20185;-85
2022/06/22 01:08:02;;;;;;;438.80;233.93;;;10.70;99.90;;;;;;5094592;28;20184;-85
2022/06/22 01:10:35;;;;;;;438.10;232.43;;;10.70;99.90;;;;;;5094364;28;20232;-86
2022/06/22 01:13:07;;;;;;;444.67;224.27;;;10.70;99.90;;;;;;5093471;28;20689;-86
2022/06/22 01:15:38;;;;;;;420.63;232.40;;;10.70;1.00;;;;;;5094278;28;20644;-86
2022/06/22 01:18:08;;;;;;;418.33;232.43;;;10.70;99.90;;;;;;5094544;28;20208;-85
2022/06/22 01:20:52;;;;;;;413.03;226.63;;;10.70;99.90;;;;;;5094126;28;20211;-87
2022/06/22 01:23:59;;;;;;;454.20;231.17;;;10.70;1.00;;;;;;5093883;28;20199;-87
2022/06/22 01:26:51;;;;;;;423.53;227.33;;;10.70;1.00;;;;;;5094448;28;20176;-86
2022/06/22 01:29:22;;;;;;;389.73;216.07;;;10.70;1.00;;;;;;5077549;28;20188;-86
2022/06/22 01:31:59;;;;;;;407.40;226.13;;;10.60;1.00;;;;;;5094367;28;20191;-86
2022/06/22 01:34:32;;;;;;;396.60;224.67;;;10.60;1.00;;;;;;5093602;28;20186;-85
2022/06/22 01:37:02;;;;;;;361.70;217.93;;;10.60;1.00;;;;;;5093783;28;20625;-85
2022/06/22 01:39:29;;;;;;;366.63;222.60;;;10.60;1.00;;;;;;5094100;28;20185;-85
2022/06/22 01:42:00;;;;;;;359.47;223.30;;;10.60;99.90;;;;;;5093817;28;20193;-85
2022/06/22 01:44:35;;;;;;;384.63;224.83;;;10.60;1.00;;;;;;5093735;28;20185;-85
2022/06/22 01:47:19;;;;;;;397.23;224.53;;;10.60;1.00;;;;;;5093876;28;20623;-87
2022/06/22 01:49:55;;;;;;;395.90;216.57;;;10.60;1.00;;;;;;5093570;28;20185;-86
2022/06/22 01:52:45;;;;;;;439.47;228.83;;;10.60;1.00;;;;;;5093882;28;20182;-85
2022/06/22 01:55:22;;;;;;;456.43;227.93;;;10.60;1.00;;;;;;5093724;28;20554;-88
2022/06/22 01:57:57;;;;;;;443.20;231.20;;;10.60;1.00;;;;;;5093576;28;20210;-86
2022/06/22 02:00:25;;;;;;;427.77;232.50;;;10.60;1.00;;;;;;5093339;28;20653;-87
2022/06/22 02:02:57;;;;;;;418.93;223.07;;;10.60;1.00;;;;;;5093416;28;20643;-85
2022/06/22 02:05:30;;;;;;;437.73;228.67;;;10.60;1.00;;;;;;5092529;28;20657;-85
2022/06/22 02:08:02;;;;;;;429.67;226.93;;;10.50;1.00;;;;;;5093538;28;20243;-85
2022/06/22 02:10:40;;;;;;;438.50;228.40;;;10.60;1.00;;;;;;5093727;28;20511;-87
2022/06/22 02:13:22;;;;;;;431.20;221.87;;;10.60;1.00;;;;;;5093028;28;20186;-86
2022/06/22 02:15:59;;;;;;;429.47;227.50;;;10.60;1.00;;;;;;5093530;28;20232;-86
2022/06/22 02:18:33;;;;;;;421.20;225.50;;;10.60;1.00;;;;;;5093334;28;20205;-85
2022/06/22 02:21:08;;;;;;;425.83;234.47;;;10.60;1.00;;;;;;5093377;28;20187;-85
2022/06/22 02:23:38;;;;;;;413.73;231.93;;;10.70;1.00;;;;;;5093217;28;20195;-86
2022/06/22 02:26:15;;;;;;;414.50;229.07;;;10.70;1.00;;;;;;5092859;28;20202;-85
2022/06/22 02:28:44;;;;;;;431.07;229.73;;;10.70;1.00;;;;;;5093022;28;20218;-85
2022/06/22 02:31:13;;;;;;;410.70;235.10;;;10.70;1.00;;;;;;5093348;28;20198;-85
2022/06/22 02:33:44;;;;;;;420.27;227.07;;;10.80;1.00;;;;;;5092557;28;20190;-86
2022/06/22 02:36:13;;;;;;;474.47;235.40;;;10.80;1.00;;;;;;5092959;28;20191;-85
2022/06/22 02:38:43;;;;;;;483.97;232.90;;;10.90;1.00;;;;;;5092800;28;20218;-86
2022/06/22 02:46:45;;;;;;;476.53;228.83;;;10.90;1.00;;;;;;5092881;28;20537;-86
2022/06/22 02:49:22;;;;;;;127.37;51.87;;;10.90;10.70;;;;;;5092997;28;20243;-85
2022/06/22 02:51:50;;;;;;;6.90;3.10;;;11.00;99.90;;;;;;5092595;28;20189;-86
2022/06/22 02:54:26;;;;;;;5.33;3.13;;;11.00;99.90;;;;;;5092146;28;20191;-86
2022/06/22 02:57:02;;;;;;;4.43;3.07;;;11.10;1.00;;;;;;5092339;28;20519;-87
2022/06/22 02:59:30;;;;;;;287.77;253.67;;;11.10;1.00;;;;;;5092212;28;20212;-86
2022/06/22 03:01:59;;;;;;;7.00;3.30;;;11.10;1.00;;;;;;5092125;28;20586;-86
2022/06/22 03:04:26;;;;;;;5.07;3.23;;;11.20;1.00;;;;;;5091952;28;20601;-87
2022/06/22 03:06:56;;;;;;;7.57;3.40;;;11.30;1.00;;;;;;5092345;28;20182;-86
2022/06/22 03:09:25;;;;;;;7.07;2.90;;;11.40;1.00;;;;;;5092530;28;20210;-87
2022/06/22 03:11:56;;;;;;;6.17;3.10;;;11.40;1.00;;;;;;5092075;28;20195;-87
2022/06/22 03:14:27;;;;;;;35.50;32.73;;;11.50;1.00;;;;;;5092504;28;20230;-86
2022/06/22 03:16:57;;;;;;;7.13;2.90;;;11.60;1.00;;;;;;5091391;28;20699;-87
2022/06/22 03:19:31;;;;;;;4.07;2.63;;;11.70;1.00;;;;;;5092440;28;20218;-85
2022/06/22 03:21:59;;;;;;;5.70;2.60;;;11.80;1.00;;;;;;5091971;28;20183;-85
2022/06/22 03:24:38;;;;;;;7.00;5.63;;;11.90;1.00;;;;;;5091837;28;20191;-87
2022/06/22 03:27:12;;;;;;;7.83;3.30;;;12.10;1.00;;;;;;5092242;28;20268;-86
2022/06/22 03:29:43;;;;;;;8.33;2.77;;;12.20;1.00;;;;;;5091648;28;20196;-86
2022/06/22 03:32:17;;;;;;;5.70;2.57;;;12.30;1.00;;;;;;5092268;28;20182;-85
2022/06/22 03:34:50;;;;;;;4.63;2.60;;;12.40;1.00;;;;;;5092711;28;20289;-86
2022/06/22 03:37:21;;;;;;;6.73;2.60;;;12.50;1.00;;;;;;5091904;28;20628;-87
2022/06/22 03:39:52;;;;;;;8.50;3.07;;;12.70;1.00;;;;;;5092171;28;20210;-87
2022/06/22 03:42:24;;;;;;;7.80;2.63;;;12.80;96.30;;;;;;5092573;28;20203;-85
2022/06/22 03:44:55;;;;;;;7.13;2.80;;;13.00;1.00;;;;;;5092115;28;20261;-86
2022/06/22 03:47:25;;;;;;;5.17;2.43;;;13.40;93.40;;;;;;5092233;28;20243;-85
2022/06/22 03:49:57;;;;;;;4.30;2.10;;;14.10;1.00;;;;;;5092667;28;20221;-86
2022/06/22 03:52:29;;;;;;;3.08;2.30;;;14.80;99.90;;;;;;5092002;28;20196;-88
2022/06/22 03:55:01;;;;;;;9.00;2.50;;;15.50;1.00;;;;;;5092146;28;20294;-86
2022/06/22 03:57:33;;;;;;;3.10;1.70;;;16.10;1.00;;;;;;5092819;28;20185;-86
2022/06/22 04:00:00;;;;;;;;;;;16.60;99.90;;;;;;5092960;28;20058;-88
2022/06/22 04:02:27;;;;;;;;;;;17.30;1.00;;;;;;5092544;28;19999;-86
2022/06/22 04:04:57;;;;;;;;;;;18.00;40.20;;;;;;5092509;28;19924;-87
2022/06/22 04:07:26;;;;;;;4.80;2.15;;;18.60;1.00;;;;;;5092185;28;20497;-88
2022/06/22 04:09:55;;;;;;;;;;;19.20;99.90;;;;;;5092720;28;20139;-87
2022/06/22 04:12:25;;;;;;;;;;;20.00;1.00;;;;;;5092752;28;19977;-87
2022/06/22 04:14:58;;;;;;;8.63;2.70;;;21.10;1.00;;;;;;5091647;28;20646;-87
2022/06/22 04:17:31;;;;;;;6.10;2.42;;;22.20;1.00;;;;;;5092038;28;20637;-87
2022/06/22 04:20:05;;;;;;;6.30;2.67;;;23.20;99.90;;;;;;5092285;28;20235;-88
2022/06/22 04:22:36;;;;;;;4.95;2.85;;;24.30;1.00;;;;;;5092277;28;20264;-89
2022/06/22 04:25:05;;;;;;;;;;;25.30;1.00;;;;;;5092242;28;20444;-89
2022/06/22 04:27:33;;;;;;;;;;;26.30;99.90;;;;;;5093751;28;19984;-87
2022/06/22 04:30:04;;;;;;;8.35;3.03;;;27.30;99.90;;;;;;5095595;28;19919;-89
2022/06/22 04:32:38;;;;;;;6.75;2.80;;;28.30;99.90;;;;;;5095900;28;20176;-88
2022/06/22 04:35:20;;;;;;;13.23;3.17;;;29.20;99.90;;;;;;5095538;28;20184;-86
2022/06/22 04:37:53;;;;;;;12.73;3.72;;;29.90;99.90;;;;;;5095994;28;20191;-87
2022/06/22 04:40:26;;;;;;;7.60;2.80;;;30.80;99.90;;;;;;5095742;28;20249;-85
2022/06/22 04:42:58;;;;;;;9.60;2.60;;;31.50;99.90;;;;;;5095387;28;20190;-85
2022/06/22 04:45:30;;;;;;;5.47;2.45;;;32.20;99.90;;;;;;5075451;28;20166;-86
2022/06/22 04:48:03;;;;;;;5.47;1.80;;;32.60;99.90;;;;;;5075161;28;20259;-86
2022/06/22 04:50:32;;;;;;;6.72;1.90;;;33.20;95.90;;;;;;5075133;28;20207;-88
2022/06/22 04:53:02;;;;;;;7.40;2.20;;;33.60;91.60;;;;;;5091784;28;20188;-86
2022/06/22 04:55:30;;;;;;;5.55;1.65;;;33.90;85.30;;;;;;5095176;28;20551;-86
2022/06/22 04:58:02;;;;;;;18.27;2.47;;;34.00;76.40;;;;;;5094897;28;20679;-86
2022/06/22 05:00:34;;;;;;;4.38;1.48;;;34.30;69.50;;;;;;5095003;28;20628;-87
2022/06/22 05:03:04;;;;;;;2.55;1.23;;;34.70;63.60;;;;;;5095476;28;20191;-87
2022/06/22 05:05:35;;;;;;;4.28;1.30;;;35.20;55.50;;;;;;5095822;28;20167;-85
2022/06/22 05:08:07;;;;;;;5.60;1.55;;;35.60;52.90;;;;;;5094723;28;20179;-85
2022/06/22 05:10:43;;;;;;;2.65;1.27;;;35.90;46.80;;;;;;5093859;28;20584;-87
2022/06/22 05:13:16;;;;;;;3.75;1.25;;;36.00;63.40;;;;;;5095228;28;20179;-86
2022/06/22 05:15:46;;;;;;;3.65;1.58;;;36.10;37.40;;;;;;5095013;28;20624;-88
2022/06/22 05:18:18;;;;;;;3.88;1.42;;;36.10;32.60;;;;;;5094652;28;20199;-88
2022/06/22 05:20:51;;;;;;;6.97;1.30;;;36.20;30.90;;;;;;5094754;28;20179;-87
2022/06/22 05:23:22;;;;;;;2.22;1.10;;;36.30;27.60;;;;;;5094101;28;20248;-87
2022/06/22 05:25:53;;;;;;;4.38;1.27;;;36.30;25.30;;;;;;5094536;28;20191;-88
2022/06/22 05:28:32;;;;;;;3.88;1.08;;;36.30;23.10;;;;;;5095102;28;20211;-90
2022/06/22 05:31:04;;;;;;;8.52;2.22;;;36.30;20.70;;;;;;5097690;28;20198;-90
2022/06/22 05:33:32;;;;;;;8.35;2.90;;;36.30;18.20;;;;;;5098546;28;20195;-90
2022/06/22 05:36:05;;;;;;;8.85;2.03;;;36.40;16.70;;;;;;5098997;28;20195;-91
2022/06/22 05:38:35;;;;;;;5.07;1.50;;;36.50;16.30;;;;;;5098050;28;20203;-91
2022/06/22 05:41:04;;;;;;;5.85;1.40;;;36.70;14.50;;;;;;5099107;28;20206;-91
2022/06/22 05:43:33;;;;;;;7.70;1.65;;;36.90;13.50;;;;;;5099959;28;20227;-91
2022/06/22 05:46:02;;;;;;;3.58;1.40;;;37.10;10.60;;;;;;5098494;28;20278;-90
2022/06/22 05:48:32;;;;;;;2.28;1.05;;;37.30;8.80;;;;;;5098275;28;20234;-91
2022/06/22 05:51:03;;;;;;;3.05;1.20;;;37.60;5.70;;;;;;5097569;28;20210;-90
2022/06/22 05:53:39;;;;;;;5.38;1.60;;;37.70;3.20;;;;;;5079924;28;20200;-90
2022/06/22 05:56:17;;;;;;;16.08;2.50;;;37.60;4.10;;;;;;5078141;28;20257;-92
2022/06/22 05:58:53;;;;;;;3.22;1.50;;;37.70;2.30;;;;;;5079663;28;20223;-92
2022/06/22 06:01:29;;;;;;;4.20;1.88;;;37.90;1.50;;;;;;5097043;28;20195;-93
2022/06/22 06:04:03;;;;;;;4.43;1.85;;;38.40;1.00;;;;;;5097571;28;20679;-93
2022/06/22 06:06:37;;;;;;;4.40;2.00;;;38.90;1.00;;;;;;5097936;28;20217;-93
2022/06/22 06:09:07;;;;;;;4.22;2.08;;;39.40;1.00;;;;;;5097252;28;20083;-94
2022/06/22 06:11:40;;;;;;;4.35;2.00;;;39.80;1.00;;;;;;5098856;28;20548;-94
2022/06/22 06:14:14;;;;;;;7.30;2.10;;;40.20;1.00;;;;;;5097705;28;20202;-91
2022/06/22 06:16:47;;;;;;;6.55;2.65;;;40.60;1.00;;;;;;5099487;28;20178;-92
2022/06/22 06:19:18;;;;;;;5.00;2.63;;;40.70;1.00;;;;;;5098900;28;20690;-92
2022/06/22 06:21:50;;;;;;;3.58;1.73;;;40.70;1.00;;;;;;5098271;28;20179;-95
2022/06/22 06:24:21;;;;;;;3.13;1.73;;;40.50;1.00;;;;;;5101329;28;20198;-92
2022/06/22 06:29:40;;;;;;;2.67;1.17;;;40.80;1.00;;;;;;5100395;28;20260;-93
2022/06/22 06:32:31;;;;;;;3.17;1.10;;;41.00;1.00;;;;;;5100708;28;20544;-93
2022/06/22 06:35:05;;;;;;;2.72;1.40;;;40.90;1.00;;;;;;5098525;28;20256;-93
2022/06/22 06:37:47;;;;;;;2.67;1.30;;;41.00;1.00;;;;;;5100365;28;20201;-92
2022/06/22 06:40:23;;;;;;;1.90;1.20;;;41.50;1.00;;;;;;5098577;28;20210;-93
2022/06/22 06:42:57;;;;;;;5.22;2.80;;;41.40;1.00;;;;;;5098844;28;20199;-93
2022/06/22 06:45:27;;;;;;;4.97;1.52;;;41.40;1.00;;;;;;5099660;28;20194;-93
2022/06/22 06:47:59;;;;;;;2.10;0.90;;;41.50;1.00;;;;;;5101340;28;20199;-93
2022/06/22 06:50:33;;;;;;;0.98;0.77;;;41.70;1.00;;;;;;5099975;28;20211;-93
2022/06/22 06:53:11;;;;;;;5.18;1.17;;;41.70;1.00;;;;;;5099396;28;20215;-93
2022/06/22 06:55:45;;;;;;;1.30;0.80;;;41.60;1.00;;;;;;5100588;28;20248;-92
2022/06/22 06:58:20;;;;;;;4.45;1.40;;;41.40;1.00;;;;;;5102257;28;20197;-92
2022/06/22 07:00:49;;;;;;;3.08;1.10;;;41.60;1.00;;;;;;5099902;28;20213;-93
2022/06/22 07:03:22;;;;;;;4.28;1.00;;;41.70;1.00;;;;;;5099418;28;20305;-92
2022/06/22 07:05:50;;;;;;;2.17;1.00;;;42.00;1.00;;;;;;5100287;28;20187;-92
2022/06/22 07:08:21;;;;;;;2.25;0.98;;;42.00;1.00;;;;;;5099548;28;20270;-94
2022/06/22 07:10:54;;;;;;;4.10;2.17;;;42.00;1.00;;;;;;5099476;28;20207;-92
2022/06/22 07:13:27;;;;;;;4.28;1.20;;;42.00;1.00;;;;;;5101113;28;20187;-91
2022/06/22 07:15:58;;;;;;;3.80;1.20;;;42.20;1.00;;;;;;5100457;28;20201;-93
2022/06/22 07:18:30;;;;;;;2.05;0.88;;;42.10;1.00;;;;;;5099435;28;20198;-93
2022/06/22 07:21:08;;;;;;;0.77;0.70;;;42.00;1.00;;;;;;5101551;28;20209;-94
2022/06/22 07:23:45;;;;;;;1.90;0.90;;;42.00;1.00;;;;;;5099684;28;20241;-93
2022/06/22 07:26:32;;;;;;;2.13;1.05;;;42.30;1.00;;;;;;5098627;28;20277;-94
2022/06/22 07:29:03;;;;;;;2.63;1.02;;;42.30;1.00;;;;;;5099017;28;20550;-93
2022/06/22 07:31:38;;;;;;;4.00;1.17;;;42.30;1.00;;;;;;5097027;28;20197;-93
2022/06/22 07:34:13;;;;;;;2.03;1.10;;;42.50;1.00;;;;;;5095065;28;20559;-94
2022/06/22 07:36:45;;;;;;;1.52;0.70;;;42.50;1.00;;;;;;5094990;28;20198;-93
2022/06/22 07:39:20;;;;;;;9.93;1.90;;;42.30;1.00;;;;;;5099345;28;20210;-93
2022/06/22 07:41:48;;;;;;;3.60;1.90;;;42.10;1.00;;;;;;5098226;28;20197;-94
2022/06/22 07:44:19;;;;;;;4.85;1.50;;;41.80;1.00;;;;;;5094927;28;20194;-93
2022/06/22 07:46:53;;;;;;;5.18;0.80;;;41.90;1.00;;;;;;5096587;28;20203;-93
2022/06/22 07:49:26;;;;;;;1.85;0.70;;;41.90;1.00;;;;;;5097078;28;20246;-92
2022/06/22 07:51:57;;;;;;;3.35;1.15;;;41.90;1.00;;;;;;5097352;28;20195;-93
2022/06/22 07:54:32;;;;;;;1.13;0.70;;;41.90;1.00;;;;;;5096171;28;20210;-93
2022/06/22 07:57:10;;;;;;;1.55;0.90;;;41.80;1.00;;;;;;5094098;28;20252;-93
2022/06/22 07:59:44;;;;;;;2.63;0.70;;;41.70;1.00;;;;;;5094848;28;20222;-93
2022/06/22 08:02:17;;;;;;;4.28;1.00;;;41.30;1.00;;;;;;5096503;28;20684;-93
2022/06/22 08:04:52;;;;;;;2.03;1.00;;;41.10;1.00;;;;;;5098463;28;20201;-94
2022/06/22 08:07:24;;;;;;;2.53;1.15;;;41.20;1.00;;;;;;5099081;28;20230;-93
2022/06/22 08:10:01;;;;;;;2.80;1.00;;;41.50;1.00;;;;;;5097802;28;20219;-93
2022/06/22 08:12:35;;;;;;;3.53;1.02;;;41.70;1.00;;;;;;5097915;28;20190;-93
2022/06/22 08:15:05;;;;;;;2.80;0.95;;;41.70;1.00;;;;;;5100235;28;20202;-92
2022/06/22 08:17:43;;;;;;;1.60;0.90;;;42.00;1.00;;;;;;5099302;28;20191;-93
2022/06/22 08:20:15;;;;;;;3.10;1.60;;;42.00;1.00;;;;;;5101185;28;20205;-92
2022/06/22 08:22:45;;;;;;;2.83;0.80;;;41.90;1.00;;;;;;5098486;28;20237;-93
2022/06/22 08:25:17;;;;;;;4.13;1.00;;;41.80;1.00;;;;;;5100433;28;20551;-92
2022/06/22 08:27:45;;;;;;;3.58;0.80;;;42.00;1.00;;;;;;5098718;28;20215;-92
2022/06/22 08:30:15;;;;;;;1.88;0.90;;;42.10;1.00;;;;;;5096708;28;20223;-93
2022/06/22 08:32:51;;;;;;;3.35;1.23;;;41.80;1.00;;;;;;5097098;28;20202;-93
2022/06/22 08:35:22;;;;;;;4.00;1.27;;;41.50;1.00;;;;;;5096930;28;20204;-92
2022/06/22 08:37:55;;;;;;;2.75;1.00;;;41.30;1.00;;;;;;5096743;28;20652;-92
2022/06/22 08:40:34;;;;;;;1.92;0.80;;;41.00;1.00;;;;;;5096813;28;20297;-92
2022/06/22 08:43:10;;;;;;;2.10;0.90;;;40.60;1.00;;;;;;5096736;28;20658;-92
2022/06/22 08:46:05;;;;;;;2.53;1.30;;;40.30;1.00;;;;;;5096830;28;20203;-92
2022/06/22 08:49:07;;;;;;;1.67;0.93;;;40.30;1.00;;;;;;5096376;28;20187;-92
2022/06/22 08:51:58;;;;;;;2.03;0.80;;;40.30;1.00;;;;;;5080738;28;20263;-93
2022/06/22 08:54:56;;;;;;;3.00;0.80;;;40.20;1.00;;;;;;5096225;28;20199;-92
2022/06/22 08:57:38;;;;;;;2.75;0.90;;;40.00;1.00;;;;;;5096869;28;20304;-91
2022/06/22 09:00:16;;;;;;;2.33;0.70;;;39.70;1.00;;;;;;5096599;28;20203;-92
2022/06/22 09:03:17;;;;;;;3.05;0.80;;;39.60;1.00;;;;;;5098232;28;20279;-93
2022/06/22 09:06:31;;;;;;;4.05;2.38;;;39.50;1.00;;;;;;5099017;28;20204;-92
2022/06/22 09:09:20;;;;;;;3.40;1.65;;;39.60;1.00;;;;;;5061586;28;20195;-93
2022/06/22 09:12:16;;;;;;;3.10;2.05;;;40.00;1.00;;;;;;5098124;28;20211;-94
2022/06/22 09:15:08;;;;;;;1.40;0.80;;;40.40;1.00;;;;;;5095472;28;20610;-92
2022/06/22 09:18:02;;;;;;;1.30;0.90;;;40.40;1.00;;;;;;5095871;28;20203;-91
2022/06/22 09:20:39;;;;;;;2.22;0.93;;;40.30;1.00;;;;;;5085743;28;20214;-91
2022/06/22 09:23:20;;;;;;;1.23;0.75;;;40.20;1.00;;;;;;5093485;28;20183;-91
2022/06/22 09:25:55;;;;;;;3.58;0.90;;;39.80;1.00;;;;;;5095746;28;20206;-91
2022/06/22 09:28:28;;;;;;;3.80;1.00;;;39.60;1.00;;;;;;5095402;28;20277;-91
2022/06/22 09:31:25;;;;;;;9.23;1.70;;;39.20;1.00;;;;;;5094996;28;20218;-91
2022/06/22 09:34:08;;;;;;;2.05;1.00;;;38.70;1.00;;;;;;5090193;28;20654;-91
2022/06/22 09:36:56;;;;;;;;;;;38.00;1.00;;;;;;5095965;28;20074;-91
2022/06/22 09:39:59;;;;;;;1.25;0.70;;;37.40;1.00;;;;;;5095954;28;20233;-91
2022/06/22 09:42:51;;;;;;;2.97;1.10;;;36.50;1.00;;;;;;5061392;28;20209;-90
2022/06/22 09:45:36;;;;;;;4.90;3.03;;;35.60;1.00;;;;;;5095471;28;20101;-91
2022/06/22 09:48:28;;;;;;;15.20;2.88;;;35.20;1.00;;;;;;5095089;28;20555;-91
2022/06/22 09:51:08;;;;;;;4.05;0.90;;;34.90;1.00;;;;;;5094403;28;20246;-90
2022/06/22 09:56:19;;;;;;;3.45;1.15;;;34.30;1.00;;;;;;5095253;28;20636;-89
2022/06/22 09:57:12;;;;;;;4.75;1.17;;;33.80;1.00;;;;;;5091044;28;20624;-92
2022/06/22 10:00:09;;;;;;;4.65;1.20;;;33.10;1.00;;;;;;5095009;28;20274;-92
2022/06/22 10:03:05;;;;;;;6.15;2.95;;;32.70;1.00;;;;;;5095175;28;20227;-93
2022/06/22 10:06:13;;;;;;;5.25;1.83;;;32.70;1.00;;;;;;5095040;28;20669;-92
2022/06/22 10:09:01;;;;;;;2.78;1.60;;;32.60;1.00;;;;;;5094986;28;20191;-93
2022/06/22 10:11:39;;;;;;;4.88;1.30;;;32.50;1.00;;;;;;5094733;28;20212;-93
2022/06/22 10:14:39;;;;;;;2.83;1.20;;;32.30;1.00;;;;;;5095328;28;20160;-93
2022/06/22 10:17:31;;;;;;;3.10;1.00;;;32.00;1.00;;;;;;5097761;28;20203;-93
2022/06/22 10:20:17;;;;;;;4.32;1.35;;;31.70;1.00;;;;;;5095887;28;20206;-94
2022/06/22 10:23:00;;;;;;;3.55;1.17;;;31.60;1.00;;;;;;5094397;28;20598;-94
2022/06/22 10:25:41;;;;;;;;;;;31.50;1.00;;;;;;5094978;28;20140;-93
2022/06/22 10:28:32;;;;;;;1.42;1.10;;;31.40;1.00;;;;;;5094607;28;20217;-94
2022/06/22 10:31:09;;;;;;;11.07;2.25;;;31.10;1.00;;;;;;5094195;28;20222;-92
2022/06/22 10:34:01;;;;;;;1.45;0.98;;;30.90;1.00;;;;;;5094866;28;20213;-94
2022/06/22 10:36:54;;;;;;;1.95;0.90;;;30.70;1.00;;;;;;5094429;28;20218;-94
2022/06/22 10:39:55;;;;;;;1.60;1.10;;;30.70;1.00;;;;;;5094572;28;20198;-92
2022/06/22 10:45:40;;;;;;;2.33;1.00;;;30.80;1.00;;;;;;5094325;28;20170;-94
2022/06/22 10:48:52;;;;;;;1.88;0.98;;;30.70;1.00;;;;;;5097598;28;20199;-94
2022/06/22 10:51:34;;;;;;;3.25;1.05;;;30.50;1.00;;;;;;5032499;28;20300;-93
2022/06/22 10:54:27;;;;;;;5.07;1.33;;;30.50;1.00;;;;;;5086446;28;20195;-93
2022/06/22 10:57:11;;;;;;;1.90;0.98;;;30.70;1.00;;;;;;5094568;28;20233;-93
2022/06/22 11:00:12;;;;;;;5.95;1.20;;;30.70;1.00;;;;;;5094648;28;20615;-94
2022/06/22 11:03:16;;;;;;;1.33;0.98;;;30.40;1.00;;;;;;5095343;28;20242;-94
2022/06/22 11:06:11;;;;;;;1.85;1.20;;;30.30;1.00;;;;;;5062029;28;20232;-94
2022/06/22 11:09:06;;;;;;;5.68;1.10;;;30.10;1.00;;;;;;5088346;28;20180;-94
2022/06/22 11:11:57;;;;;;;1.48;1.10;;;29.80;1.00;;;;;;5089428;28;20247;-93
2022/06/22 11:15:04;;;;;;;;;;;;;;;;;;;;;
2022/06/22 11:17:58;;;;;;;2.80;1.30;;;29.50;1.00;;;;;;5096662;28;20195;-93
2022/06/22 11:20:44;;;;;;;2.30;1.30;;;29.50;1.00;;;;;;5096113;28;20192;-93
2022/06/22 11:23:16;;;;;;;3.00;1.08;;;29.50;1.00;;;;;;5094099;28;20212;-93
2022/06/22 11:32:21;;;;;;;3.47;1.35;;;29.50;1.00;;;;;;5093718;28;20206;-93
2022/06/22 11:35:24;;;;;;;3.08;1.20;;;29.40;1.00;;;;;;5093722;28;20278;-93
2022/06/22 11:38:04;;;;;;;5.35;1.17;;;29.30;1.00;;;;;;5095625;28;20202;-93
2022/06/22 11:40:48;;;;;;;5.57;1.33;;;29.40;1.00;;;;;;5097724;28;20195;-92
2022/06/22 11:43:48;;;;;;;6.22;1.30;;;29.50;1.00;;;;;;5098090;28;20206;-94
2022/06/22 11:46:21;;;;;;;3.90;1.10;;;29.60;1.00;;;;;;5099128;28;20207;-94
2022/06/22 11:49:22;;;;;;;4.13;1.15;;;29.60;1.00;;;;;;5098195;28;20219;-94
2022/06/22 11:52:14;;;;;;;3.17;1.20;;;29.60;1.00;;;;;;5100140;28;20647;-93
2022/06/22 11:54:55;;;;;;;2.72;1.00;;;29.70;1.00;;;;;;5101181;28;20230;-94
2022/06/22 11:58:21;;;;;;;2.75;1.30;;;29.60;1.00;;;;;;5098854;28;20269;-95
2022/06/22 12:01:01;;;;;;;2.20;1.08;;;29.70;1.00;;;;;;5064990;28;20258;-92
2022/06/22 12:03:51;;;;;;;2.60;1.30;;;29.70;1.00;;;;;;5078151;28;20200;-93
2022/06/22 12:06:39;;;;;;;2.75;1.30;;;29.70;1.00;;;;;;5076869;28;20201;-93
2022/06/22 12:09:22;;;;;;;1.77;1.08;;;29.60;1.00;;;;;;5077153;28;20208;-93
2022/06/22 12:12:19;;;;;;;3.55;1.30;;;29.30;1.00;;;;;;5079090;28;20532;-93
2022/06/22 12:15:09;;;;;;;;;;;29.10;1.00;;;;;;5078021;28;20120;-93
2022/06/22 12:17:51;;;;;;;;;;;28.80;1.00;;;;;;5080676;28;20441;-92
2022/06/22 12:20:25;;;;;;;;;;;28.80;1.00;;;;;;5087041;28;19920;-94
2022/06/22 12:22:58;;;;;;;;;;;28.80;1.00;;;;;;5099643;28;19942;-94
2022/06/22 12:25:39;;;;;;;;;;;28.80;1.00;;;;;;5098572;28;19919;-95
2022/06/22 12:28:12;;;;;;;;;;;28.70;1.00;;;;;;5098509;28;19927;-94
2022/06/22 12:30:49;;;;;;;;;;;28.80;1.00;;;;;;5098060;28;19989;-94
2022/06/22 12:33:21;;;;;;;;;;;28.90;1.00;;;;;;5100681;28;20327;-92
2022/06/22 12:35:52;;;;;;;;;;;28.80;1.00;;;;;;5098870;28;19942;-93
2022/06/22 12:38:26;;;;;;;;;;;28.80;1.00;;;;;;5098182;28;19963;-93
2022/06/22 12:40:58;;;;;;;;;;;28.90;1.00;;;;;;5097936;28;19962;-93
2022/06/22 12:43:35;;;;;;;;;;;28.90;1.00;;;;;;5097630;28;19927;-93
2022/06/22 12:46:08;;;;;;;;;;;29.00;1.00;;;;;;5097439;28;20010;-93
2022/06/22 12:48:50;;;;;;;;;;;29.00;1.00;;;;;;5077373;28;19920;-94
2022/06/22 12:51:18;;;;;;;;;;;29.10;1.00;;;;;;5063629;28;19994;-93
2022/06/22 12:53:51;;;;;;;;;;;29.00;1.00;;;;;;5076660;28;19924;-94
2022/06/22 12:56:20;;;;;;;;;;;28.90;1.00;;;;;;5076049;28;19928;-93
2022/06/22 12:58:50;;;;;;;;;;;28.90;1.00;;;;;;5085803;28;19960;-94
2022/06/22 13:01:17;;;;;;;;;;;28.80;1.00;;;;;;5096663;28;19970;-93
2022/06/22 13:03:46;;;;;;;;;;;28.80;1.00;;;;;;5096944;28;19927;-94
2022/06/22 13:06:13;;;;;;;;;;;28.80;1.00;;;;;;5097864;28;19992;-95
2022/06/22 13:08:40;;;;;;;;;;;28.80;1.00;;;;;;5097291;28;19920;-92
2022/06/22 13:11:13;;;;;;;;;;;28.70;1.00;;;;;;5097281;28;20360;-95
2022/06/22 13:13:43;;;;;;;;;;;28.70;1.00;;;;;;5097194;28;20423;-94
2022/06/22 13:16:13;;;;;;;;;;;28.80;1.00;;;;;;5097236;28;20344;-94
2022/06/22 13:18:43;;;;;;;;;;;28.90;1.00;;;;;;5097032;28;19928;-91
2022/06/22 13:21:13;;;;;;;;;;;28.90;1.00;;;;;;5098283;28;20014;-94
2022/06/22 13:23:48;;;;;;;;;;;28.80;1.00;;;;;;5097734;28;19920;-93
2022/06/22 13:26:22;;;;;;;;;;;28.80;1.00;;;;;;5098253;28;19923;-93
2022/06/22 13:29:01;;;;;;;;;;;28.80;1.00;;;;;;5097229;28;19920;-94
2022/06/22 13:31:29;;;;;;;;;;;28.70;1.00;;;;;;5098810;28;19924;-95
2022/06/22 13:33:57;;;;;;;;;;;28.70;1.00;;;;;;5097657;28;19926;-94
2022/06/22 13:36:36;;;;;;;;;;;28.70;1.00;;;;;;5098744;28;19927;-94
2022/06/22 13:45:28;;;;;;;;;;;28.70;1.00;;;;;;5095512;28;19943;-93
2022/06/22 13:48:15;;;;;;;;;;;28.70;1.00;;;;;;5098125;28;19985;-92
2022/06/22 13:51:03;;;;;;;;;;;28.70;1.00;;;;;;5091211;28;19969;-93
2022/06/22 13:53:36;;;;;;;;;;;28.60;1.00;;;;;;5097739;28;19923;-91
2022/06/22 13:56:10;;;;;;;;;;;28.60;1.00;;;;;;5097871;28;20009;-93
2022/06/22 13:58:41;;;;;;;;;;;28.50;1.00;;;;;;5099664;28;20293;-94
2022/06/22 14:01:13;;;;;;;;;;;28.40;1.00;;;;;;5097653;28;20354;-92
2022/06/22 14:03:44;;;;;;;;;;;28.30;1.00;;;;;;5095976;28;19926;-92
2022/06/22 14:06:12;;;;;;;;;;;28.10;1.00;;;;;;5096610;28;19919;-94
2022/06/22 14:08:43;;;;;;;;;;;28.10;1.00;;;;;;5096600;28;19920;-93
2022/06/22 14:11:13;;;;;;;;;;;28.10;1.00;;;;;;5095940;28;20020;-93
2022/06/22 14:13:44;;;;;;;;;;;28.10;1.00;;;;;;5097481;28;19919;-93
2022/06/22 14:16:32;;;;;;;;;;;28.10;1.00;;;;;;5099481;28;20365;-92
2022/06/22 14:19:31;;;;;;;;;;;28.10;1.00;;;;;;5098986;28;19920;-93